createdAt,value
2023-02-02T00:01:15.068Z,3.90
2023-02-02T00:06:09.032Z,4.00
2023-02-02T00:11:02.441Z,4.10
2023-02-02T00:15:55.926Z,4.00
2023-02-02T00:20:50.688Z,4.00
2023-02-02T00:25:44.277Z,4.00
2023-02-02T00:30:37.599Z,4.00
2023-02-02T00:35:30.954Z,4.00
2023-02-02T00:40:26.863Z,4.00
2023-02-02T00:45:20.211Z,4.10
2023-02-02T00:50:17.153Z,4.10
2023-02-02T00:55:13.660Z,4.00
2023-02-02T01:00:13.551Z,4.00
2023-02-02T01:05:07.627Z,4.10
2023-02-02T01:10:00.956Z,4.00
2023-02-02T01:14:54.408Z,4.10
2023-02-02T01:19:49.245Z,4.10
2023-02-02T01:24:42.789Z,4.10
2023-02-02T01:29:36.450Z,4.10
2023-02-02T01:34:29.969Z,4.10
2023-02-02T01:39:24.916Z,4.10
2023-02-02T01:45:13.466Z,4.00
2023-02-02T01:50:10.412Z,4.00
2023-02-02T01:55:11.114Z,4.00
2023-02-02T02:00:19.528Z,4.00
2023-02-02T02:05:16.868Z,4.00
2023-02-02T02:10:12.641Z,4.10
2023-02-02T02:15:24.906Z,4.10
2023-02-02T02:21:27.778Z,4.00
2023-02-02T02:27:04.125Z,4.00
2023-02-02T02:32:34.555Z,4.00
2023-02-02T02:37:42.755Z,4.00
2023-02-02T02:42:45.583Z,4.00
2023-02-02T02:47:43.482Z,4.00
2023-02-02T02:52:38.260Z,4.00
2023-02-02T02:57:54.890Z,4.00
2023-02-02T03:03:04.134Z,3.90
2023-02-02T03:08:11.037Z,3.90
2023-02-02T03:13:10.039Z,3.80
2023-02-02T03:18:05.303Z,3.80
2023-02-02T03:22:58.641Z,3.80
2023-02-02T03:27:52.415Z,3.70
2023-02-02T03:32:46.928Z,3.70
2023-02-02T03:37:41.655Z,3.60
2023-02-02T03:42:34.938Z,3.60
2023-02-02T03:47:30.734Z,3.60
2023-02-02T03:52:24.060Z,3.50
2023-02-02T03:57:19.295Z,3.50
2023-02-02T04:02:12.618Z,3.50
2023-02-02T04:07:06.938Z,3.40
2023-02-02T04:12:00.374Z,3.50
2023-02-02T04:16:55.181Z,3.50
2023-02-02T04:21:48.533Z,3.50
2023-02-02T04:26:42.961Z,3.50
2023-02-02T04:31:36.531Z,3.50
2023-02-02T04:36:31.576Z,3.40
2023-02-02T04:41:25.665Z,3.40
2023-02-02T04:46:19.154Z,3.40
2023-02-02T04:51:15.408Z,3.40
2023-02-02T04:56:14.643Z,3.50
2023-02-02T05:01:13.176Z,3.50
2023-02-02T05:06:08.064Z,3.50
2023-02-02T05:11:01.431Z,3.50
2023-02-02T05:15:56.823Z,3.50
2023-02-02T05:20:50.140Z,3.60
2023-02-02T05:25:43.496Z,3.60
2023-02-02T05:30:36.891Z,3.60
2023-02-02T05:35:31.589Z,3.60
2023-02-02T05:40:24.960Z,3.50
2023-02-02T05:45:18.592Z,3.50
2023-02-02T05:50:12.437Z,3.40
2023-02-02T05:55:09.823Z,3.50
2023-02-02T06:00:03.450Z,3.50
2023-02-02T06:04:56.931Z,3.50
2023-02-02T06:09:51.451Z,3.50
2023-02-02T06:14:46.153Z,3.60
2023-02-02T06:19:39.489Z,3.60
2023-02-02T06:24:32.938Z,3.60
2023-02-02T06:29:26.571Z,3.60
2023-02-02T06:34:21.610Z,3.80
2023-02-02T06:39:14.874Z,3.80
2023-02-02T06:44:08.488Z,3.80
2023-02-02T06:49:02.027Z,3.80
2023-02-02T06:53:59.233Z,3.70
2023-02-02T06:58:52.968Z,3.70
2023-02-02T07:03:51.202Z,3.70
2023-02-02T07:08:45.205Z,3.80
2023-02-02T07:13:42.521Z,3.60
2023-02-02T07:18:36.903Z,3.60
2023-02-02T07:23:30.678Z,3.60
2023-02-02T07:28:24.242Z,3.60
2023-02-02T07:33:19.058Z,3.70
2023-02-02T07:38:12.640Z,3.70
2023-02-02T07:43:05.988Z,3.70
2023-02-02T07:48:00.477Z,3.80
2023-02-02T07:52:55.279Z,3.70
2023-02-02T07:57:48.826Z,3.70
2023-02-02T08:02:42.301Z,3.80
2023-02-02T08:07:36.141Z,3.90
2023-02-02T08:12:32.089Z,3.80
2023-02-02T08:17:25.586Z,3.90
2023-02-02T08:22:20.409Z,3.80
2023-02-02T08:27:14.312Z,3.70
2023-02-02T08:32:09.190Z,3.70
2023-02-02T08:37:02.573Z,3.80
2023-02-02T08:41:57.268Z,3.80
2023-02-02T08:46:50.777Z,3.90
2023-02-02T08:51:45.691Z,4.00
2023-02-02T08:56:39.243Z,4.00
2023-02-02T09:01:34.799Z,4.00
2023-02-02T09:06:33.200Z,4.00
2023-02-02T09:11:28.644Z,4.00
2023-02-02T09:16:23.791Z,4.10
2023-02-02T09:21:19.497Z,4.10
2023-02-02T09:26:16.588Z,4.20
2023-02-02T09:31:12.176Z,4.20
2023-02-02T09:36:08.541Z,4.20
2023-02-02T09:41:03.268Z,4.30
2023-02-02T09:46:17.009Z,4.30
2023-02-02T09:51:20.203Z,4.30
2023-02-02T09:56:23.952Z,4.40
2023-02-02T10:01:23.117Z,4.40
2023-02-02T10:06:33.968Z,4.40
2023-02-02T10:11:38.615Z,4.50
2023-02-02T10:16:33.649Z,4.50
2023-02-02T10:21:41.917Z,4.50
2023-02-02T10:26:44.449Z,4.60
2023-02-02T10:31:46.646Z,4.60
2023-02-02T10:36:57.283Z,4.60
2023-02-02T10:42:07.812Z,4.60
2023-02-02T10:47:07.282Z,4.70
2023-02-02T10:52:17.927Z,4.70
2023-02-02T10:57:18.659Z,4.80
2023-02-02T11:02:20.613Z,4.80
2023-02-02T11:07:20.551Z,4.90
2023-02-02T11:12:24.192Z,4.90
2023-02-02T11:17:24.389Z,5.00
2023-02-02T11:22:36.783Z,5.00
2023-02-02T11:27:35.013Z,5.00
2023-02-02T11:32:32.943Z,5.00
2023-02-02T11:37:26.197Z,4.90
2023-02-02T11:42:24.682Z,5.00
2023-02-02T11:47:26.136Z,5.00
2023-02-02T11:52:24.387Z,5.00
2023-02-02T11:57:23.275Z,5.10
2023-02-02T12:02:28.075Z,5.10
2023-02-02T12:07:28.798Z,5.10
2023-02-02T12:12:43.488Z,5.20
2023-02-02T12:17:42.114Z,5.30
2023-02-02T12:23:28.424Z,5.30
2023-02-02T12:28:47.461Z,5.30
2023-02-02T12:33:53.722Z,5.20
2023-02-02T12:39:10.012Z,5.20
2023-02-02T12:44:18.177Z,5.30
2023-02-02T12:49:59.467Z,5.30
2023-02-02T12:55:16.323Z,5.30
2023-02-02T13:00:53.559Z,5.30
2023-02-02T13:06:09.662Z,5.30
2023-02-02T13:11:29.884Z,5.30
2023-02-02T13:16:25.952Z,5.40
2023-02-02T13:21:24.772Z,5.50
2023-02-02T13:26:22.284Z,5.50
2023-02-02T13:31:24.686Z,5.50
2023-02-02T13:36:28.647Z,5.50
2023-02-02T13:41:23.431Z,5.60
2023-02-02T13:46:36.176Z,5.60
2023-02-02T13:52:09.943Z,5.60
2023-02-02T13:57:25.891Z,5.70
2023-02-02T14:02:28.509Z,5.70
2023-02-02T14:07:33.211Z,5.60
2023-02-02T14:12:34.685Z,5.60
2023-02-02T14:17:56.646Z,5.60
2023-02-02T14:22:52.506Z,5.60
2023-02-02T14:28:02.072Z,5.70
2023-02-02T14:33:15.823Z,5.60
2023-02-02T14:38:20.021Z,5.60
2023-02-02T14:43:49.694Z,5.60
2023-02-02T14:48:48.364Z,5.60
2023-02-02T14:53:53.885Z,5.60
2023-02-02T14:59:01.281Z,5.60
2023-02-02T15:03:58.089Z,5.60
2023-02-02T15:09:36.816Z,5.60
2023-02-02T15:14:39.481Z,5.70
2023-02-02T15:19:40.672Z,5.60
2023-02-02T15:24:39.290Z,5.70
2023-02-02T15:29:43.206Z,5.70
2023-02-02T15:34:44.705Z,5.70
2023-02-02T15:39:42.826Z,5.70
2023-02-02T15:44:39.148Z,5.70
2023-02-02T15:49:36.502Z,5.60
2023-02-02T15:54:32.979Z,5.70
2023-02-02T15:59:31.726Z,5.70
2023-02-02T16:04:32.819Z,5.70
2023-02-02T16:09:30.084Z,5.70
2023-02-02T16:14:24.083Z,5.60
2023-02-02T16:19:23.267Z,5.60
2023-02-02T16:24:24.220Z,5.60
2023-02-02T16:29:19.247Z,5.60
2023-02-02T16:34:19.456Z,5.60
2023-02-02T16:39:24.915Z,5.60
2023-02-02T16:44:38.716Z,5.60
2023-02-02T16:49:33.969Z,5.60
2023-02-02T16:54:27.348Z,5.60
2023-02-02T16:59:27.001Z,5.50
2023-02-02T17:04:25.995Z,5.50
2023-02-02T17:09:35.078Z,5.60
2023-02-02T17:14:35.991Z,5.60
2023-02-02T17:19:31.508Z,5.60
2023-02-02T17:24:26.611Z,5.60
2023-02-02T17:29:22.456Z,5.60
2023-02-02T17:34:16.820Z,5.60
2023-02-02T17:39:11.649Z,5.60
2023-02-02T17:44:07.054Z,5.70
2023-02-02T17:49:00.651Z,5.80
2023-02-02T17:53:55.493Z,5.70
2023-02-02T17:58:51.642Z,5.70
2023-02-02T18:03:47.945Z,5.70
2023-02-02T18:08:41.351Z,5.70
2023-02-02T18:13:35.002Z,5.60
2023-02-02T18:18:29.911Z,5.60
2023-02-02T18:23:24.830Z,5.60
2023-02-02T18:28:18.250Z,5.60
2023-02-02T18:33:13.298Z,5.60
2023-02-02T18:38:06.803Z,5.50
2023-02-02T18:43:01.580Z,5.50
2023-02-02T18:47:54.966Z,5.40
2023-02-02T18:52:48.456Z,5.40
2023-02-02T18:57:41.785Z,5.40
2023-02-02T19:02:36.598Z,5.40
2023-02-02T19:07:47.505Z,5.40
2023-02-02T19:12:40.975Z,5.40
2023-02-02T19:17:36.020Z,5.40
2023-02-02T19:22:32.545Z,5.40
2023-02-02T19:27:27.696Z,5.50
2023-02-02T19:32:24.946Z,5.50
2023-02-02T19:37:26.012Z,5.40
2023-02-02T19:42:19.425Z,5.50
2023-02-02T19:47:32.098Z,5.40
2023-02-02T19:52:27.723Z,5.30
2023-02-02T19:57:27.767Z,5.30
2023-02-02T20:02:45.320Z,5.40
2023-02-02T20:07:40.747Z,5.40
2023-02-02T20:12:34.083Z,5.40
2023-02-02T20:17:34.545Z,5.50
2023-02-02T20:22:30.382Z,5.50
2023-02-02T20:27:28.904Z,5.50
2023-02-02T20:32:26.575Z,5.40
2023-02-02T20:37:25.730Z,5.40
2023-02-02T20:42:19.519Z,5.50
2023-02-02T20:47:14.303Z,5.50
2023-02-02T20:52:12.041Z,5.40
2023-02-02T20:57:06.296Z,5.40
2023-02-02T21:02:00.274Z,5.30
2023-02-02T21:06:55.498Z,5.30
2023-02-02T21:11:49.050Z,5.30
2023-02-02T21:16:42.422Z,5.20
2023-02-02T21:21:35.998Z,5.10
2023-02-02T21:26:31.121Z,5.10
2023-02-02T21:31:27.715Z,5.10
2023-02-02T21:36:34.947Z,5.00
2023-02-02T21:41:34.367Z,5.00
2023-02-02T21:46:38.032Z,5.00
2023-02-02T21:51:38.566Z,5.00
2023-02-02T21:56:41.156Z,5.10
2023-02-02T22:01:39.868Z,5.10
2023-02-02T22:06:37.124Z,5.10
2023-02-02T22:11:40.017Z,5.10
2023-02-02T22:16:42.434Z,5.10
2023-02-02T22:21:36.094Z,5.20
2023-02-02T22:26:35.288Z,5.10
2023-02-02T22:31:28.686Z,5.10
2023-02-02T22:36:22.089Z,5.10
2023-02-02T22:41:15.669Z,5.10
2023-02-02T22:46:10.541Z,5.20
2023-02-02T22:51:03.869Z,5.10
2023-02-02T22:55:57.479Z,5.00
2023-02-02T23:00:50.789Z,5.00
2023-02-02T23:05:45.522Z,4.80
2023-02-02T23:10:39.204Z,4.80
2023-02-02T23:15:32.956Z,4.90
2023-02-02T23:20:26.641Z,4.90
2023-02-02T23:25:22.024Z,4.90
2023-02-02T23:30:16.340Z,5.00
2023-02-02T23:35:11.208Z,5.00
2023-02-02T23:40:05.059Z,5.00
2023-02-02T23:44:59.941Z,5.00
2023-02-02T23:49:53.703Z,5.00
2023-02-02T23:54:47.370Z,4.90
2023-02-02T23:59:40.775Z,4.90
